Time;durP1;ratioP1;P1;durP2;ratioP2;P2;SDS_P1;SDS_P2;PMS_P1;PMS_P2;Temp;Humidity;BMP_temperature;BMP_pressure;BME280_temperature;BME280_humidity;BME280_pressure;Samples;Min_cycle;Max_cycle;Signal;HPM_P1;HPM_P2
2023/06/30 00:01:50;;;;;;;13.37;7.40;;;22.00;1.00;;;;;;4991392;28;20478;-71
2023/06/30 00:04:17;;;;;;;7.93;6.83;;;21.90;1.00;;;;;;4991717;28;20509;-71
2023/06/30 00:06:44;;;;;;;8.67;6.70;;;21.80;1.00;;;;;;4991626;28;20411;-71
2023/06/30 00:09:09;;;;;;;9.37;6.10;;;21.70;1.00;;;;;;4991686;28;20940;-71
2023/06/30 00:11:38;;;;;;;7.90;6.00;;;21.70;1.00;;;;;;4991275;28;20502;-71
2023/06/30 00:14:04;;;;;;;7.53;6.40;;;21.70;1.00;;;;;;4991303;28;20200;-71
2023/06/30 00:16:31;;;;;;;8.27;6.93;;;21.70;1.00;;;;;;4990276;28;20771;-71
2023/06/30 00:18:57;;;;;;;11.20;7.90;;;21.70;1.00;;;;;;4991549;28;20189;-71
2023/06/30 00:21:23;;;;;;;10.07;7.40;;;21.70;1.00;;;;;;4991747;28;20515;-70
2023/06/30 00:23:48;;;;;;;7.70;6.90;;;21.80;1.00;;;;;;4994753;28;20177;-70
2023/06/30 00:26:14;;;;;;;8.00;7.20;;;21.80;1.00;;;;;;4995020;28;20192;-69
2023/06/30 00:28:39;;;;;;;9.17;8.23;;;21.70;1.00;;;;;;4994959;28;20188;-70
2023/06/30 00:31:05;;;;;;;7.90;6.70;;;21.80;1.00;;;;;;4994893;28;20204;-69
2023/06/30 00:33:30;;;;;;;10.43;7.87;;;21.80;1.00;;;;;;4994739;28;20647;-70
2023/06/30 00:35:56;;;;;;;11.23;7.47;;;21.80;1.00;;;;;;4994943;28;20257;-70
2023/06/30 00:38:21;;;;;;;6.90;6.20;;;21.90;1.00;;;;;;4994776;28;20173;-70
2023/06/30 00:40:47;;;;;;;8.00;7.20;;;21.80;1.00;;;;;;4994875;28;20259;-70
2023/06/30 00:43:13;;;;;;;7.17;6.00;;;21.80;1.00;;;;;;4993325;28;20177;-70
2023/06/30 00:45:38;;;;;;;13.00;7.43;;;21.80;1.00;;;;;;4994781;28;20180;-70
2023/06/30 00:48:04;;;;;;;10.87;8.07;;;21.70;1.00;;;;;;4994955;28;20267;-70
2023/06/30 00:50:30;;;;;;;8.00;6.47;;;21.80;1.10;;;;;;4994573;28;20583;-70
2023/06/30 00:52:59;;;;;;;8.50;7.70;;;21.70;1.40;;;;;;4994532;28;20239;-70
2023/06/30 00:55:26;;;;;;;8.30;7.17;;;21.70;1.50;;;;;;4994620;28;20169;-71
2023/06/30 00:57:52;;;;;;;9.60;8.27;;;21.60;1.70;;;;;;4994467;28;20849;-72
2023/06/30 01:00:18;;;;;;;11.40;7.33;;;21.60;2.00;;;;;;4994375;28;20463;-70
2023/06/30 01:03:03;;;;;;;13.17;8.53;;;21.50;2.00;;;;;;4994102;28;20798;-70
2023/06/30 01:05:44;;;;;;;9.50;7.37;;;21.50;2.60;;;;;;4990376;28;20459;-70
2023/06/30 01:08:20;;;;;;;11.30;9.10;;;21.50;3.00;;;;;;4994270;28;20415;-71
2023/06/30 01:10:47;;;;;;;11.50;8.10;;;21.40;3.20;;;;;;4994271;28;20550;-71
2023/06/30 01:13:14;;;;;;;11.50;7.80;;;21.40;3.10;;;;;;4991712;28;20431;-70
2023/06/30 01:15:40;;;;;;;10.63;9.53;;;21.40;3.60;;;;;;4994223;28;20451;-71
2023/06/30 01:18:08;;;;;;;9.73;8.73;;;21.40;3.90;;;;;;4994092;28;20420;-71
2023/06/30 01:20:35;;;;;;;11.73;9.00;;;21.40;3.90;;;;;;4994103;28;20434;-71
2023/06/30 01:23:14;;;;;;;14.03;9.47;;;21.40;3.90;;;;;;4993749;28;20423;-70
2023/06/30 01:25:40;;;;;;;9.90;8.90;;;21.40;3.90;;;;;;4993897;28;20455;-71
2023/06/30 01:28:07;;;;;;;11.63;8.80;;;21.40;3.90;;;;;;4993957;28;20426;-70
2023/06/30 01:30:33;;;;;;;10.43;9.20;;;21.40;4.10;;;;;;4993926;28;20463;-70
2023/06/30 01:32:59;;;;;;;8.73;7.83;;;21.40;4.70;;;;;;4993581;28;20502;-71
2023/06/30 01:35:26;;;;;;;11.43;9.50;;;21.30;4.70;;;;;;4992853;28;20185;-71
2023/06/30 01:37:52;;;;;;;12.20;9.43;;;21.30;4.80;;;;;;4994081;28;20909;-70
2023/06/30 01:40:18;;;;;;;13.90;9.90;;;21.20;5.40;;;;;;4993611;28;20974;-70
2023/06/30 01:42:45;;;;;;;12.63;10.20;;;21.20;5.60;;;;;;4994215;28;20415;-70
2023/06/30 01:45:12;;;;;;;11.80;9.23;;;21.10;6.20;;;;;;4994241;28;20181;-70
2023/06/30 01:47:38;;;;;;;11.40;9.40;;;21.00;6.20;;;;;;4993993;28;20419;-70
2023/06/30 01:50:05;;;;;;;11.40;10.13;;;21.00;6.40;;;;;;4993297;28;20476;-70
2023/06/30 01:52:31;;;;;;;11.70;9.07;;;20.90;6.90;;;;;;4993328;28;20308;-71
2023/06/30 01:54:56;;;;;;;14.93;9.73;;;20.90;6.90;;;;;;4993477;28;20436;-71
2023/06/30 01:57:22;;;;;;;13.50;9.10;;;20.90;7.20;;;;;;4993424;28;20168;-70
2023/06/30 01:59:47;;;;;;;13.20;10.70;;;20.80;7.60;;;;;;4993836;28;20267;-70
2023/06/30 02:02:13;;;;;;;12.60;8.63;;;20.80;8.10;;;;;;4992776;28;20180;-70
2023/06/30 02:04:38;;;;;;;10.93;9.17;;;20.80;8.10;;;;;;4993272;28;20203;-70
2023/06/30 02:07:04;;;;;;;15.10;10.57;;;20.80;10.60;;;;;;4992951;28;20169;-70
2023/06/30 02:09:30;;;;;;;14.10;10.20;;;20.70;12.60;;;;;;4993743;28;20203;-70
2023/06/30 02:11:55;;;;;;;10.47;8.53;;;20.70;14.20;;;;;;4993287;28;20220;-70
2023/06/30 02:14:23;;;;;;;12.57;8.57;;;20.80;8.40;;;;;;4993235;28;20172;-70
2023/06/30 02:16:48;;;;;;;15.43;10.60;;;20.70;8.20;;;;;;4992580;28;20184;-71
2023/06/30 02:19:14;;;;;;;13.97;9.87;;;20.70;8.50;;;;;;4993273;28;20432;-70
2023/06/30 02:21:41;;;;;;;12.33;9.90;;;20.70;8.60;;;;;;4993250;28;20228;-70
2023/06/30 02:24:08;;;;;;;12.43;11.13;;;20.70;8.50;;;;;;4991928;28;20681;-70
2023/06/30 02:26:33;;;;;;;12.90;10.67;;;20.70;8.50;;;;;;4993249;28;20439;-70
2023/06/30 02:28:59;;;;;;;13.93;10.00;;;20.70;8.70;;;;;;4993740;28;20442;-70
2023/06/30 02:31:25;;;;;;;13.47;10.47;;;20.70;8.80;;;;;;4993310;28;20331;-70
2023/06/30 02:33:50;;;;;;;11.53;9.53;;;20.70;8.90;;;;;;4993083;28;20656;-70
2023/06/30 02:36:16;;;;;;;12.83;9.97;;;20.70;8.90;;;;;;4993562;28;20185;-70
2023/06/30 02:38:42;;;;;;;13.10;9.93;;;20.70;8.80;;;;;;4992940;28;20192;-70
2023/06/30 02:41:07;;;;;;;12.63;9.00;;;20.80;8.90;;;;;;4993727;28;20210;-70
2023/06/30 02:43:33;;;;;;;13.20;11.70;;;20.70;8.90;;;;;;4993044;28;20203;-70
2023/06/30 02:45:59;;;;;;;12.20;10.80;;;20.70;9.30;;;;;;4993235;28;20195;-70
2023/06/30 02:48:24;;;;;;;10.60;9.60;;;20.70;9.40;;;;;;4993395;28;20407;-70
2023/06/30 02:50:50;;;;;;;15.50;10.37;;;20.70;9.40;;;;;;4992865;28;20258;-70
2023/06/30 02:53:16;;;;;;;17.33;10.80;;;20.70;9.40;;;;;;4992559;28;20186;-70
2023/06/30 02:55:41;;;;;;;16.77;11.03;;;20.70;9.30;;;;;;4992814;28;20589;-70
2023/06/30 02:58:07;;;;;;;17.20;11.10;;;20.70;8.90;;;;;;4993070;28;20176;-70
2023/06/30 03:00:34;;;;;;;10.63;8.73;;;20.80;9.30;;;;;;4993024;28;20216;-69
2023/06/30 03:02:59;;;;;;;13.50;9.20;;;20.70;9.50;;;;;;4992422;28;20184;-69
2023/06/30 03:05:25;;;;;;;12.57;11.27;;;20.70;9.60;;;;;;4993114;28;20821;-69
2023/06/30 03:07:50;;;;;;;11.10;9.33;;;20.70;9.60;;;;;;4992851;28;20238;-69
2023/06/30 03:10:16;;;;;;;12.00;9.60;;;20.70;9.70;;;;;;4992364;28;20220;-70
2023/06/30 03:12:41;;;;;;;14.37;10.50;;;20.60;10.00;;;;;;4992462;28;20282;-69
2023/06/30 03:15:07;;;;;;;14.30;10.97;;;20.60;10.30;;;;;;4992563;28;20665;-69
2023/06/30 03:17:33;;;;;;;14.20;11.50;;;20.60;10.60;;;;;;4992489;28;20177;-70
2023/06/30 03:19:59;;;;;;;13.47;9.43;;;20.60;10.30;;;;;;4992493;28;20443;-70
2023/06/30 03:22:25;;;;;;;13.70;9.30;;;20.60;10.30;;;;;;4992305;28;20181;-70
2023/06/30 03:24:56;;;;;;;12.00;9.97;;;20.60;10.60;;;;;;4993028;28;20454;-70
2023/06/30 03:27:21;;;;;;;13.77;9.03;;;20.50;10.50;;;;;;4998335;28;20176;-70
2023/06/30 03:29:50;;;;;;;14.80;10.83;;;20.50;11.00;;;;;;4995457;28;20440;-71
2023/06/30 03:32:16;;;;;;;13.07;10.73;;;20.50;11.40;;;;;;4993002;28;20647;-70
2023/06/30 03:34:41;;;;;;;14.00;10.70;;;20.50;11.60;;;;;;4992961;28;20494;-71
2023/06/30 03:37:07;;;;;;;17.37;10.30;;;20.50;11.70;;;;;;4992811;28;20222;-70
2023/06/30 03:39:32;;;;;;;19.10;10.20;;;20.50;11.90;;;;;;4992989;28;20279;-72
2023/06/30 03:41:58;;;;;;;14.80;11.57;;;20.60;11.60;;;;;;4991683;28;20223;-73
2023/06/30 03:44:23;;;;;;;15.07;11.87;;;20.60;11.60;;;;;;4992926;28;20259;-70
2023/06/30 03:46:49;;;;;;;12.87;10.90;;;20.60;11.80;;;;;;4992941;28;20416;-70
2023/06/30 03:49:15;;;;;;;12.67;11.37;;;20.60;12.20;;;;;;4992515;28;20290;-70
2023/06/30 03:51:41;;;;;;;17.40;11.70;;;20.70;12.60;;;;;;4992020;28;20251;-70
2023/06/30 03:54:07;;;;;;;14.97;9.63;;;20.70;12.60;;;;;;4992398;28;20326;-71
2023/06/30 03:56:32;;;;;;;12.23;9.23;;;20.70;12.60;;;;;;4992241;28;20514;-70
2023/06/30 03:58:58;;;;;;;16.60;10.80;;;20.70;12.90;;;;;;4995948;28;20204;-70
2023/06/30 04:01:25;;;;;;;11.50;9.07;;;20.70;13.00;;;;;;4995797;28;20184;-70
2023/06/30 04:03:52;;;;;;;11.57;8.53;;;20.70;12.90;;;;;;4995626;28;20650;-69
2023/06/30 04:06:18;;;;;;;9.40;7.83;;;20.70;12.90;;;;;;4995759;28;20427;-70
2023/06/30 04:08:45;;;;;;;9.20;8.27;;;20.50;12.60;;;;;;4995743;28;20988;-70
2023/06/30 04:11:10;;;;;;;8.50;6.83;;;20.50;12.60;;;;;;4994501;28;20518;-70
2023/06/30 04:13:36;;;;;;;8.33;7.43;;;20.40;12.30;;;;;;4995529;28;20842;-70
2023/06/30 04:16:01;;;;;;;18.13;10.90;;;20.30;12.30;;;;;;4995609;28;20255;-70
2023/06/30 04:18:27;;;;;;;10.60;9.13;;;20.20;16.70;;;;;;4995563;28;20543;-70
2023/06/30 04:20:53;;;;;;;12.30;11.00;;;20.20;16.70;;;;;;4995509;28;20522;-70
2023/06/30 04:23:21;;;;;;;14.23;9.47;;;20.30;17.60;;;;;;4995554;28;20357;-70
2023/06/30 04:25:47;;;;;;;9.93;8.40;;;20.30;18.70;;;;;;4995661;28;20705;-70
2023/06/30 04:28:12;;;;;;;13.70;9.80;;;20.30;19.30;;;;;;4994179;28;20424;-70
2023/06/30 04:30:38;;;;;;;14.40;10.73;;;20.20;21.10;;;;;;4995302;28;20208;-70
2023/06/30 04:33:04;;;;;;;12.97;9.60;;;20.10;22.50;;;;;;4993782;28;20180;-70
2023/06/30 04:35:29;;;;;;;13.63;10.93;;;19.90;24.60;;;;;;4993920;28;20181;-70
2023/06/30 04:37:55;;;;;;;9.83;8.67;;;19.80;25.90;;;;;;4995672;28;20917;-70
2023/06/30 04:40:20;;;;;;;13.33;10.50;;;19.80;28.10;;;;;;4995461;28;20201;-70
2023/06/30 04:42:46;;;;;;;16.80;8.93;;;19.70;28.90;;;;;;4994749;28;20718;-70
2023/06/30 04:45:12;;;;;;;18.63;11.20;;;19.50;30.20;;;;;;4994970;28;20654;-70
2023/06/30 04:47:37;;;;;;;15.40;10.80;;;19.30;33.30;;;;;;4995388;28;20618;-70
2023/06/30 04:50:04;;;;;;;24.13;11.33;;;19.10;35.60;;;;;;4995205;28;20224;-69
2023/06/30 04:52:29;;;;;;;16.37;10.80;;;18.90;38.90;;;;;;4994979;28;20177;-69
2023/06/30 04:54:56;;;;;;;16.93;11.03;;;18.90;41.10;;;;;;4995134;28;20408;-69
2023/06/30 04:57:22;;;;;;;13.53;11.47;;;18.80;38.80;;;;;;4995463;28;20268;-69
2023/06/30 04:59:50;;;;;;;13.53;10.93;;;18.80;41.50;;;;;;4994891;28;20483;-70
2023/06/30 05:02:17;;;;;;;17.97;12.30;;;18.80;41.60;;;;;;4994738;28;20419;-70
2023/06/30 05:04:42;;;;;;;15.53;11.07;;;18.80;41.40;;;;;;4994665;28;20428;-70
2023/06/30 05:07:09;;;;;;;13.40;11.40;;;18.70;41.70;;;;;;4995356;28;20901;-70
2023/06/30 05:09:35;;;;;;;13.70;11.20;;;18.70;41.90;;;;;;4993718;28;20211;-70
2023/06/30 05:12:01;;;;;;;14.40;11.27;;;18.70;43.90;;;;;;4994583;28;20463;-70
2023/06/30 05:14:26;;;;;;;15.93;11.63;;;18.70;43.50;;;;;;4994864;28;20177;-70
2023/06/30 05:16:52;;;;;;;14.07;9.47;;;18.80;43.30;;;;;;4995163;28;20602;-70
2023/06/30 05:19:18;;;;;;;18.53;13.03;;;18.80;43.00;;;;;;4994726;28;20472;-70
2023/06/30 05:21:43;;;;;;;16.70;10.10;;;18.80;42.90;;;;;;4994889;28;20176;-69
2023/06/30 05:24:09;;;;;;;14.80;10.80;;;18.90;40.60;;;;;;4994879;28;20177;-70
2023/06/30 05:26:34;;;;;;;12.83;10.13;;;18.80;38.80;;;;;;4994530;28;20177;-71
2023/06/30 05:29:00;;;;;;;15.63;11.40;;;18.80;38.80;;;;;;4994368;28;20247;-71
2023/06/30 05:31:26;;;;;;;14.77;12.10;;;18.90;40.50;;;;;;4994276;28;20201;-74
2023/06/30 05:33:51;;;;;;;13.03;10.70;;;19.00;40.30;;;;;;4994134;28;20177;-72
2023/06/30 05:36:17;;;;;;;12.00;9.97;;;19.00;39.90;;;;;;4994631;28;20185;-72
2023/06/30 05:38:43;;;;;;;13.73;12.30;;;19.00;40.00;;;;;;4994785;28;20188;-69
2023/06/30 05:41:09;;;;;;;18.47;12.13;;;18.90;36.60;;;;;;4994466;28;20431;-73
2023/06/30 05:43:34;;;;;;;17.40;11.90;;;18.90;39.80;;;;;;4994074;28;20184;-73
2023/06/30 05:46:00;;;;;;;23.23;12.47;;;18.90;42.00;;;;;;4994431;28;20420;-73
2023/06/30 05:48:26;;;;;;;14.57;10.83;;;19.00;43.60;;;;;;4994570;28;20587;-71
2023/06/30 05:50:54;;;;;;;12.07;9.93;;;19.10;43.30;;;;;;4994656;28;20200;-73
2023/06/30 05:53:20;;;;;;;15.57;11.77;;;19.10;43.50;;;;;;4993984;28;20432;-72
2023/06/30 05:55:45;;;;;;;14.57;11.50;;;19.10;43.20;;;;;;4993050;28;20766;-72
2023/06/30 05:58:11;;;;;;;18.77;10.70;;;19.10;42.80;;;;;;4994752;28;20215;-72
2023/06/30 06:00:36;;;;;;;14.20;10.97;;;18.90;42.10;;;;;;4994004;28;20331;-73
2023/06/30 06:03:02;;;;;;;16.83;11.60;;;19.00;42.50;;;;;;4994061;28;20188;-73
2023/06/30 06:05:28;;;;;;;14.77;12.93;;;19.10;41.40;;;;;;4984457;28;20710;-74
2023/06/30 06:07:54;;;;;;;16.90;10.67;;;19.00;41.50;;;;;;4974539;28;20547;-72
2023/06/30 06:10:19;;;;;;;14.97;10.73;;;19.00;40.50;;;;;;4973881;28;20815;-73
2023/06/30 06:12:45;;;;;;;13.13;10.93;;;18.90;39.80;;;;;;4973899;28;20413;-73
2023/06/30 06:15:10;;;;;;;14.33;11.53;;;18.90;41.30;;;;;;4987472;28;20271;-73
2023/06/30 06:17:36;;;;;;;12.07;10.77;;;18.90;42.60;;;;;;4993308;28;20180;-72
2023/06/30 06:20:03;;;;;;;10.60;9.50;;;19.00;41.70;;;;;;4993134;28;20205;-72
2023/06/30 06:22:28;;;;;;;11.03;9.87;;;19.00;44.20;;;;;;4985636;28;20246;-73
2023/06/30 06:24:54;;;;;;;12.13;10.63;;;19.00;42.90;;;;;;4993552;28;20416;-70
2023/06/30 06:27:19;;;;;;;14.43;10.20;;;19.10;41.90;;;;;;4994026;28;20208;-69
2023/06/30 06:29:45;;;;;;;13.27;11.80;;;19.30;41.60;;;;;;4995011;28;20239;-71
2023/06/30 06:32:11;;;;;;;12.33;10.27;;;19.40;40.50;;;;;;4997128;28;20752;-71
2023/06/30 06:34:38;;;;;;;14.53;10.13;;;19.50;39.40;;;;;;4995908;28;20404;-71
2023/06/30 06:37:04;;;;;;;15.83;11.60;;;19.50;38.60;;;;;;4995502;28;20181;-71
2023/06/30 06:39:29;;;;;;;11.07;9.87;;;19.60;37.40;;;;;;4992657;28;20860;-69
2023/06/30 06:41:56;;;;;;;12.70;11.37;;;19.60;38.90;;;;;;4991713;28;20427;-70
2023/06/30 06:44:22;;;;;;;11.90;10.67;;;19.70;36.80;;;;;;4976461;28;20177;-71
2023/06/30 06:46:47;;;;;;;13.80;11.53;;;19.70;35.80;;;;;;4977459;28;20518;-70
2023/06/30 06:49:13;;;;;;;18.60;10.00;;;19.80;35.20;;;;;;4992965;28;20549;-71
2023/06/30 06:51:39;;;;;;;14.70;12.47;;;19.60;34.10;;;;;;5000445;28;20250;-71
2023/06/30 06:54:04;;;;;;;16.83;10.40;;;19.70;31.30;;;;;;5003746;28;20221;-70
2023/06/30 06:56:30;;;;;;;11.13;9.97;;;19.60;34.20;;;;;;5009431;28;20204;-71
2023/06/30 06:58:58;;;;;;;12.13;10.83;;;19.40;36.70;;;;;;4989479;28;20212;-71
2023/06/30 07:01:24;;;;;;;11.50;9.20;;;19.50;36.20;;;;;;4991321;28;20244;-70
2023/06/30 07:03:49;;;;;;;16.53;10.80;;;19.30;36.80;;;;;;4992402;28;20463;-70
2023/06/30 07:06:16;;;;;;;10.50;8.20;;;19.20;37.20;;;;;;4994912;28;20197;-71
2023/06/30 07:08:41;;;;;;;11.53;8.27;;;19.20;36.10;;;;;;4994421;28;20176;-70
2023/06/30 07:11:08;;;;;;;11.00;9.40;;;19.20;36.10;;;;;;4994337;28;20473;-70
2023/06/30 07:13:33;;;;;;;13.40;8.27;;;19.10;36.70;;;;;;4994163;28;20180;-70
2023/06/30 07:16:01;;;;;;;12.63;10.20;;;19.20;36.30;;;;;;4994509;28;20947;-70
2023/06/30 07:18:34;;;;;;;14.70;9.87;;;19.30;35.90;;;;;;4994722;28;20260;-71
2023/06/30 07:21:03;;;;;;;14.43;10.83;;;19.40;34.00;;;;;;4994860;28;20422;-70
2023/06/30 07:23:28;;;;;;;17.70;10.07;;;19.40;35.10;;;;;;4994452;28;20485;-71
2023/06/30 07:25:54;;;;;;;14.37;8.70;;;19.30;35.30;;;;;;4995388;28;20415;-71
2023/06/30 07:28:19;;;;;;;14.63;8.73;;;19.40;33.40;;;;;;4994579;28;20176;-71
2023/06/30 07:30:45;;;;;;;11.20;9.40;;;19.40;34.00;;;;;;4994927;28;20216;-71
2023/06/30 07:33:12;;;;;;;15.13;8.93;;;19.50;33.60;;;;;;4997996;28;20274;-72
2023/06/30 07:35:37;;;;;;;18.93;12.17;;;19.50;34.10;;;;;;4997708;28;20665;-70
2023/06/30 07:38:03;;;;;;;12.70;10.23;;;19.50;34.10;;;;;;4998517;28;20411;-71
2023/06/30 07:40:28;;;;;;;11.20;9.60;;;19.60;35.20;;;;;;4998154;28;20316;-71
2023/06/30 07:42:54;;;;;;;12.90;8.80;;;19.60;35.00;;;;;;4998127;28;20198;-71
2023/06/30 07:45:20;;;;;;;13.47;10.07;;;19.60;34.70;;;;;;4998699;28;20732;-71
2023/06/30 07:47:46;;;;;;;11.47;10.07;;;19.70;34.30;;;;;;4998838;28;20185;-71
2023/06/30 07:50:13;;;;;;;10.57;8.33;;;19.70;33.20;;;;;;5000107;28;20271;-71
2023/06/30 07:52:43;;;;;;;15.00;10.87;;;19.80;31.70;;;;;;5000595;28;20465;-71
2023/06/30 07:55:10;;;;;;;14.83;9.53;;;19.90;32.10;;;;;;5000074;28;20416;-72
2023/06/30 07:57:35;;;;;;;12.73;8.73;;;20.00;31.10;;;;;;4994518;28;20424;-70
2023/06/30 08:00:03;;;;;;;13.90;9.40;;;20.20;30.40;;;;;;5078229;22;20590;-68
2023/06/30 08:02:28;;;;;;;13.60;11.07;;;20.40;30.00;;;;;;4995528;28;20540;-68
2023/06/30 08:04:54;;;;;;;13.40;10.70;;;20.50;29.80;;;;;;4991458;28;20434;-68
2023/06/30 08:07:19;;;;;;;12.23;10.77;;;20.40;31.60;;;;;;4995440;28;20200;-68
2023/06/30 08:09:45;;;;;;;11.60;10.40;;;20.60;31.70;;;;;;4995415;28;20198;-67
2023/06/30 08:12:10;;;;;;;11.83;8.00;;;20.60;32.50;;;;;;4995295;28;20614;-67
2023/06/30 08:14:36;;;;;;;9.60;8.60;;;20.60;29.50;;;;;;4995311;28;20634;-68
2023/06/30 08:17:02;;;;;;;11.40;9.07;;;21.00;27.10;;;;;;4995394;28;20180;-73
2023/06/30 08:19:28;;;;;;;12.97;9.60;;;21.30;26.60;;;;;;4993874;28;20196;-68
2023/06/30 08:21:54;;;;;;;11.10;9.20;;;21.50;25.30;;;;;;4994692;28;20485;-69
2023/06/30 08:24:20;;;;;;;10.60;8.33;;;21.50;23.80;;;;;;4995221;28;20275;-68
2023/06/30 08:26:45;;;;;;;12.87;8.90;;;21.90;23.10;;;;;;4995226;28;20451;-68
2023/06/30 08:29:11;;;;;;;13.30;9.37;;;21.90;21.00;;;;;;4995200;28;20196;-68
2023/06/30 08:31:36;;;;;;;10.93;9.17;;;22.00;20.60;;;;;;4994738;28;20215;-71
2023/06/30 08:34:02;;;;;;;13.07;9.10;;;22.10;19.90;;;;;;4993437;28;20546;-69
2023/06/30 08:36:27;;;;;;;10.90;8.43;;;21.70;20.90;;;;;;4994915;28;20176;-70
2023/06/30 08:38:53;;;;;;;11.53;9.20;;;21.80;19.80;;;;;;4995014;28;20176;-69
2023/06/30 08:41:19;;;;;;;14.00;10.53;;;21.80;22.20;;;;;;4994967;28;20187;-69
2023/06/30 08:43:46;;;;;;;11.50;9.07;;;21.60;21.20;;;;;;4994119;28;20268;-69
2023/06/30 08:46:14;;;;;;;14.13;10.43;;;21.70;23.20;;;;;;4995031;28;20185;-69
2023/06/30 08:48:40;;;;;;;12.03;10.43;;;21.70;20.00;;;;;;4994950;28;20415;-70
2023/06/30 08:51:06;;;;;;;18.47;10.73;;;22.00;18.60;;;;;;4994545;28;20486;-70
2023/06/30 08:53:33;;;;;;;15.60;10.53;;;22.40;21.40;;;;;;4991105;28;20423;-70
2023/06/30 08:55:59;;;;;;;17.67;11.53;;;22.70;18.90;;;;;;4994659;28;20482;-71
2023/06/30 08:58:28;;;;;;;14.70;11.27;;;23.30;18.00;;;;;;4991771;28;20735;-71
2023/06/30 09:00:55;;;;;;;12.87;11.00;;;24.00;14.80;;;;;;4992852;28;20464;-69
2023/06/30 09:03:21;;;;;;;17.67;10.97;;;23.90;12.70;;;;;;4992924;28;20428;-71
2023/06/30 09:05:49;;;;;;;13.60;8.20;;;24.00;10.30;;;;;;4994524;28;20478;-71
2023/06/30 09:08:23;;;;;;;14.40;9.73;;;24.10;11.90;;;;;;4994549;28;20518;-71
2023/06/30 09:10:49;;;;;;;14.27;10.20;;;24.40;12.00;;;;;;4994501;28;20468;-71
2023/06/30 09:13:20;;;;;;;13.43;10.47;;;23.70;11.50;;;;;;4994359;28;20423;-71
2023/06/30 09:15:46;;;;;;;9.60;8.63;;;23.40;13.80;;;;;;4994116;28;20531;-71
2023/06/30 09:18:12;;;;;;;9.50;8.50;;;23.40;13.90;;;;;;4992969;28;20539;-71
2023/06/30 09:20:38;;;;;;;9.97;8.97;;;23.70;12.00;;;;;;4994164;28;20551;-71
2023/06/30 09:23:04;;;;;;;14.30;10.83;;;23.80;12.50;;;;;;4993716;28;20460;-71
2023/06/30 09:25:32;;;;;;;12.70;9.60;;;23.60;13.40;;;;;;4994078;28;20180;-71
2023/06/30 09:27:58;;;;;;;13.67;10.07;;;23.00;14.50;;;;;;4994087;28;20227;-71
2023/06/30 09:30:35;;;;;;;14.90;9.43;;;22.60;15.90;;;;;;4993956;28;20495;-71
2023/06/30 09:33:01;;;;;;;13.60;10.13;;;22.10;15.40;;;;;;4993813;28;20192;-71
2023/06/30 09:35:37;;;;;;;14.30;10.30;;;21.90;16.90;;;;;;4994282;28;20419;-71
2023/06/30 09:38:03;;;;;;;12.23;10.30;;;21.90;17.90;;;;;;4994046;28;20419;-71
2023/06/30 09:40:28;;;;;;;12.63;8.87;;;21.50;18.80;;;;;;4992557;28;20467;-71
2023/06/30 09:42:54;;;;;;;11.07;9.33;;;21.40;20.00;;;;;;4992034;28;20192;-71
2023/06/30 09:45:20;;;;;;;12.20;10.73;;;21.30;21.80;;;;;;4994185;28;20574;-71
2023/06/30 09:47:55;;;;;;;17.73;10.30;;;21.30;22.40;;;;;;4993680;28;20270;-71
2023/06/30 09:50:24;;;;;;;14.53;10.80;;;21.30;22.30;;;;;;4992210;28;20481;-71
2023/06/30 09:52:51;;;;;;;10.67;9.57;;;21.40;20.70;;;;;;4991287;28;20647;-71
2023/06/30 09:55:16;;;;;;;12.57;10.23;;;21.30;20.70;;;;;;4992643;28;20444;-71
2023/06/30 09:57:46;;;;;;;12.70;10.03;;;21.00;22.80;;;;;;4990080;28;20924;-71
2023/06/30 10:00:13;;;;;;;12.80;9.50;;;21.10;23.10;;;;;;4992937;28;20279;-71
2023/06/30 10:02:40;;;;;;;10.90;9.20;;;21.00;23.30;;;;;;4993141;28;20486;-71
2023/06/30 10:05:06;;;;;;;12.57;10.30;;;21.10;22.80;;;;;;4993555;28;20416;-72
2023/06/30 10:07:33;;;;;;;14.27;9.17;;;21.00;23.80;;;;;;4992159;28;20952;-73
2023/06/30 10:10:00;;;;;;;13.53;8.80;;;21.00;23.80;;;;;;4991615;28;20447;-72
2023/06/30 10:12:27;;;;;;;14.40;10.30;;;21.00;22.20;;;;;;4993139;28;20420;-74
2023/06/30 10:14:53;;;;;;;16.27;10.37;;;20.80;23.60;;;;;;4993137;28;20933;-74
2023/06/30 10:17:19;;;;;;;13.93;10.40;;;20.70;23.90;;;;;;4993121;28;20451;-74
2023/06/30 10:19:45;;;;;;;13.57;9.80;;;20.70;25.20;;;;;;4992830;28;20299;-74
2023/06/30 10:22:12;;;;;;;12.47;10.03;;;20.70;24.40;;;;;;4991654;28;20901;-74
2023/06/30 10:24:41;;;;;;;15.97;10.20;;;21.00;22.80;;;;;;4991564;28;20822;-74
2023/06/30 10:27:09;;;;;;;13.47;9.63;;;21.20;22.20;;;;;;4992849;28;20472;-74
2023/06/30 10:29:35;;;;;;;12.97;10.40;;;21.00;21.60;;;;;;4992737;28;20455;-75
2023/06/30 10:32:02;;;;;;;14.03;10.30;;;21.00;23.60;;;;;;4992461;28;20479;-75
2023/06/30 10:34:29;;;;;;;14.93;10.73;;;21.00;22.90;;;;;;4992718;28;20432;-75
2023/06/30 10:36:55;;;;;;;12.83;9.90;;;21.30;23.80;;;;;;4993518;28;20447;-75
2023/06/30 10:39:21;;;;;;;12.50;10.27;;;21.20;22.40;;;;;;4992198;28;20447;-75
2023/06/30 10:41:48;;;;;;;13.90;10.10;;;21.10;23.70;;;;;;4994268;28;20195;-74
2023/06/30 10:44:14;;;;;;;12.30;9.43;;;20.90;22.60;;;;;;4993416;28;20439;-75
2023/06/30 10:46:51;;;;;;;11.67;9.67;;;20.80;24.40;;;;;;4991751;28;20446;-75
2023/06/30 10:49:32;;;;;;;11.73;8.37;;;20.80;24.50;;;;;;4993280;28;20435;-74
2023/06/30 10:52:25;;;;;;;11.87;9.50;;;20.60;25.10;;;;;;4992677;28;20530;-73
2023/06/30 10:54:51;;;;;;;13.27;8.50;;;20.70;25.70;;;;;;4982843;28;20443;-72
2023/06/30 10:57:23;;;;;;;11.13;9.60;;;20.80;24.80;;;;;;4991339;28;20431;-73
2023/06/30 11:00:04;;;;;;;12.00;10.20;;;20.90;24.50;;;;;;4992447;28;20251;-72
2023/06/30 11:02:32;;;;;;;10.30;8.27;;;21.00;24.00;;;;;;4992515;28;20840;-72
2023/06/30 11:05:21;;;;;;;13.87;9.00;;;21.00;24.80;;;;;;4992708;28;20416;-72
2023/06/30 11:07:55;;;;;;;11.23;9.03;;;21.10;22.70;;;;;;4992621;28;20444;-72
2023/06/30 11:10:32;;;;;;;13.70;9.40;;;20.90;23.50;;;;;;4991572;28;20610;-72
2023/06/30 11:13:03;;;;;;;12.67;9.80;;;20.80;24.50;;;;;;4992641;28;20520;-72
2023/06/30 11:15:45;;;;;;;11.67;9.90;;;20.80;24.70;;;;;;4991606;28;20431;-72
2023/06/30 11:18:23;;;;;;;13.10;9.63;;;20.80;24.80;;;;;;4992976;28;20921;-72
2023/06/30 11:20:59;;;;;;;10.07;8.27;;;20.90;23.50;;;;;;4991162;28;20956;-72
2023/06/30 11:23:28;;;;;;;11.10;8.10;;;20.90;21.50;;;;;;4992767;28;20427;-72
2023/06/30 11:25:57;;;;;;;13.30;8.67;;;21.10;20.90;;;;;;4992704;28;20450;-72
2023/06/30 11:28:26;;;;;;;12.87;8.87;;;21.50;20.80;;;;;;4992752;28;20411;-72
2023/06/30 11:30:52;;;;;;;10.47;7.70;;;21.70;20.20;;;;;;4992421;28;20466;-72
2023/06/30 11:33:18;;;;;;;10.83;8.43;;;21.70;18.90;;;;;;4990786;28;20427;-72
2023/06/30 11:35:48;;;;;;;10.20;8.90;;;21.80;18.50;;;;;;4992583;28;20177;-72
2023/06/30 11:38:15;;;;;;;12.03;9.10;;;21.60;18.80;;;;;;4992284;28;20558;-72
2023/06/30 11:40:47;;;;;;;12.40;10.47;;;21.90;19.00;;;;;;4992673;28;20526;-72
2023/06/30 11:43:13;;;;;;;12.10;8.67;;;22.00;17.90;;;;;;4992162;28;20435;-72
2023/06/30 11:45:39;;;;;;;12.20;8.97;;;22.00;17.90;;;;;;4992408;28;20408;-73
2023/06/30 11:48:06;;;;;;;10.73;8.80;;;21.80;19.70;;;;;;4992394;28;20503;-72
2023/06/30 11:50:33;;;;;;;15.27;9.63;;;21.80;20.10;;;;;;4992167;28;20216;-72
2023/06/30 11:53:00;;;;;;;15.77;9.03;;;21.60;19.40;;;;;;4991412;28;20930;-71
2023/06/30 11:55:28;;;;;;;13.93;9.60;;;21.50;19.70;;;;;;4992095;28;20526;-71
2023/06/30 11:57:54;;;;;;;9.70;8.30;;;21.40;20.40;;;;;;4992459;28;20816;-72
2023/06/30 12:00:22;;;;;;;12.70;9.43;;;21.40;20.50;;;;;;5005759;28;20491;-72
2023/06/30 12:02:50;;;;;;;12.50;9.87;;;21.40;20.70;;;;;;4991621;28;20764;-72
2023/06/30 12:05:26;;;;;;;9.13;8.17;;;21.60;20.20;;;;;;4992229;28;20426;-68
2023/06/30 12:07:55;;;;;;;12.60;9.03;;;21.90;19.20;;;;;;4992333;28;20439;-71
2023/06/30 12:10:21;;;;;;;11.60;9.30;;;22.10;18.00;;;;;;4992116;28;20571;-72
2023/06/30 12:12:56;;;;;;;10.40;8.50;;;22.30;18.10;;;;;;4991931;28;20420;-72
2023/06/30 12:15:22;;;;;;;12.13;8.97;;;22.40;16.60;;;;;;4990660;28;20430;-72
2023/06/30 12:17:54;;;;;;;12.07;10.33;;;22.60;15.90;;;;;;4992563;28;20412;-73
2023/06/30 12:20:29;;;;;;;10.23;9.17;;;22.90;14.50;;;;;;4980899;28;20196;-72
2023/06/30 12:22:57;;;;;;;11.40;9.40;;;23.20;13.30;;;;;;4995382;28;20871;-72
2023/06/30 12:25:26;;;;;;;12.57;9.33;;;23.50;11.30;;;;;;4995682;28;20929;-71
2023/06/30 12:27:53;;;;;;;16.93;9.07;;;23.80;11.60;;;;;;4994026;28;20431;-71
2023/06/30 12:30:19;;;;;;;10.50;8.70;;;24.00;10.30;;;;;;4995192;28;20463;-71
2023/06/30 12:32:46;;;;;;;17.30;10.90;;;24.00;10.30;;;;;;4993957;28;20501;-70
2023/06/30 12:35:12;;;;;;;12.07;9.87;;;24.00;10.30;;;;;;4995486;28;20412;-70